Aérodrome :
LOGIN :

S'inscrire | Disclaimer

   EN    FR    IT 

 










Légende :    VFR   VFR Marginal   IFR   IFR Intensif   IFR Très Intensif
Visi : 
Plafond : 
>= 8 km
>= 3000ft
5 à 8 km
1000 à 3000 ft
1500m à 5 km
500 à 1000 ft
800 à 1500m
200 à 500 ft
< 800m
< 200 ft
Symboles :   Orages  Brouillard  Fortes neiges  Fortes précipitations  Vent > 20 kt
SIGMETs :   Divers  Orages  Givrage  Turbulence  Onde Orograph.  Cendres Volcan.







- Altitude de l'aérodrome : 291 ft
- Code IATA : ORY
- Voir les cartes d'approche


LFPO - Paris-Orly

DERNIER METAR :
  • 260730Z 25006KT 9999 FEW019 SCT250 17/12 Q1018 TEMPO BKN012

METARs EXPIRÉS :
  • 260700Z 26007KT 230V300 9999 FEW016 SCT250 16/12 Q1018 TEMPO BKN012
  • 260630Z 27003KT 190V320 9999 FEW012 SCT250 15/12 Q1018 TEMPO BKN012
  • 260600Z 28003KT 240V320 9999 FEW012 BKN250 14/12 Q1018 TEMPO BKN013
  • 260530Z VRB01KT 9999 FEW012 SCT110 13/11 Q1018 TEMPO BKN013
  • 260500Z 30003KT 9999 FEW012 BKN120 13/12 Q1018 TEMPO BKN013

TAF TAF LFPO
Valide du 26 à 06h jusqu'au 27 à 12h UTC


260500Z 2606/2712 30008KT 9999 SCT030
PROB30
TEMPO 2606/2608 BKN012
BECMG 2608/2610 BKN035
TEMPO 2701/2707 3500 -RA BKN012
BECMG 2710/2712 CAVOK
ATIS : +33 1 49 75 65 80
Pas de NOTAMs connus pour ce terrain.



MET'MAP, la Météo Aéronautique d'un coup d'oeil ! - Copyright ORBIFLY Décembre 2007 - Disclaimer

ORBIFLY MET'MAP TEAM :

Programmation & Développement : Alexandra Zaïnal
Conception & Développement : Baudouin d'Aumeries
Co-Programmation & Développement : Marc-Olivier Méhu
Soutien technique & logistique : Manuel Goepfert

Contact : metmap@orbifly.com




SOURCES & CREDITS :

   NOAA